Airfield :







YOU CAN JOIN US ON...

 
LOGIN :

Register | Disclaimer

   EN    FR    IT 

 









Legend :    VFR   Marginal VFR   IFR   Intensive IFR   Very Intensive IFR
Visi :
Ceiling :
>= 8 km
>= 3000ft
5 to 8 km
1000 to 3000 ft
1500m to 5 km
500 to 1000 ft
800 to 1500m
200 to 500 ft
< 800m
< 200 ft
Symbols :   Thunderstorms  Fog  Heavy snow  Heavy precipitations  Wind > 20 kt






- Airport Elevation : 792 ft
- IATA code : YSC


CYSC - Sherbrooke

CURRENT METAR :
  • 041400Z AUTO 07006KT 040V100 9SM BKN055 OVC066 06/01 A3004 RMK SLP182

EXPIRED METARs :
  • 041300Z AUTO 04006KT 9SM OVC065 04/01 A3004 RMK SLP181
  • 041200Z AUTO 06006KT 9SM OVC060 03/00 A3004 RMK SLP180

TAF TAF CYSC
Valid from the 04 at 11:00 until the 04 at 23:00 UTC


041038Z 0411/0423 05007KT P6SM OVC060
BECMG 0412/0414 24005KT
FM042200 24010KT 5SM -RA BR OVC020 RMK FCST BASED ON AUTO OBS. NXT FCST BY 041800Z



MET'MAP, your aeronautical weather chart ! - Copyright ORBIFLY December 2007 - Disclaimer

ORBIFLY MET'MAP TEAM :

Programming & Development : Alexandra Zaïnal
Concept & original design : Baudouin d'Aumeries
Assistance for programming : Marc-Olivier Méhu
Technical & hardware support : Manuel Goepfert

Contact : metmap@orbifly.com




SOURCES & CREDITS :

   NOAA